Time;durP1;ratioP1;P1;durP2;ratioP2;P2;SDS_P1;SDS_P2;PMS_P1;PMS_P2;Temp;Humidity;BMP_temperature;BMP_pressure;BME280_temperature;BME280_humidity;BME280_pressure;Samples;Min_cycle;Max_cycle;Signal;HPM_P1;HPM_P2
2020/12/19 00:02:21;;;;;;;1.27;0.37;;;10.00;99.90;;;;;;5007514;28;20237;-93
2020/12/19 00:05:06;;;;;;;0.47;0.27;;;10.00;99.90;;;;;;4980839;28;20235;-93
2020/12/19 00:07:37;;;;;;;1.27;0.40;;;10.00;99.90;;;;;;4993862;28;20225;-93
2020/12/19 00:13:08;;;;;;;2.07;0.90;;;10.00;99.90;;;;;;5010114;28;20216;-92
2020/12/19 00:15:52;;;;;;;1.50;0.70;;;10.10;99.90;;;;;;5010729;28;20213;-92
2020/12/19 00:18:23;;;;;;;0.33;0.30;;;10.10;99.90;;;;;;5010250;28;20236;-92
2020/12/19 00:38:49;;;;;;;0.80;0.40;;;10.20;99.90;;;;;;4820280;23;10001961;-94
2020/12/19 00:41:21;;;;;;;1.27;0.30;;;10.20;99.90;;;;;;5002822;28;20265;-92
2020/12/19 00:43:53;;;;;;;1.70;0.40;;;10.20;99.90;;;;;;5008337;28;20222;-91
2020/12/19 00:46:29;;;;;;;1.70;0.50;;;10.20;99.90;;;;;;4987478;28;20237;-92
2020/12/19 00:49:02;;;;;;;0.83;0.53;;;10.30;99.90;;;;;;4975181;28;20309;-92
2020/12/19 00:55:05;;;;;;;0.63;0.40;;;10.20;99.90;;;;;;4994336;28;20213;-94
2020/12/19 01:00:36;;;;;;;2.13;0.40;;;10.20;99.90;;;;;;4993755;28;20289;-92
2020/12/19 01:03:20;;;;;;;0.60;0.40;;;10.30;99.90;;;;;;4997572;28;20242;-91
2020/12/19 01:05:54;;;;;;;0.63;0.40;;;10.40;99.90;;;;;;5008825;28;20229;-91
2020/12/19 01:08:39;;;;;;;1.13;0.40;;;10.30;99.90;;;;;;5001306;28;20201;-94
2020/12/19 01:11:30;;;;;;;0.83;0.40;;;10.30;99.90;;;;;;4983944;28;20203;-93
2020/12/19 01:14:09;;;;;;;0.83;0.40;;;10.40;99.90;;;;;;4986120;28;20262;-96
2020/12/19 01:16:45;;;;;;;0.63;0.40;;;10.30;99.90;;;;;;4968543;28;20261;-96
2020/12/19 01:19:20;;;;;;;0.90;0.40;;;10.30;99.90;;;;;;4986177;28;20295;-96
2020/12/19 01:21:51;;;;;;;1.30;0.70;;;10.30;99.90;;;;;;4984249;28;20289;-95
2020/12/19 01:24:23;;;;;;;0.60;0.50;;;10.30;99.90;;;;;;4977124;28;20284;-93
2020/12/19 01:26:57;;;;;;;0.87;0.30;;;10.30;99.90;;;;;;4997466;28;20199;-96
2020/12/19 01:30:09;;;;;;;0.90;0.53;;;10.30;99.90;;;;;;4986375;28;20261;-96
2020/12/19 01:50:41;;;;;;;0.97;0.50;;;10.00;99.90;;;;;;4991171;28;20203;-96
2020/12/19 02:05:58;;;;;;;1.63;0.73;;;9.30;99.90;;;;;;5511670;23;20296;-95
2020/12/19 04:58:20;;;;;;;0.40;0.30;;;8.70;99.90;;;;;;4960614;29;20239;-94
2020/12/19 05:00:54;;;;;;;0.50;0.40;;;8.70;99.90;;;;;;4954827;29;20259;-93
2020/12/19 05:43:51;;;;;;;0.67;0.50;;;8.40;99.90;;;;;;4971046;29;20214;-94
2020/12/19 06:05:07;;;;;;;1.20;0.50;;;8.20;99.90;;;;;;4962915;29;20204;-92
2020/12/19 06:07:47;;;;;;;1.33;0.43;;;8.10;99.90;;;;;;4963700;29;20716;-91
2020/12/19 06:38:52;;;;;;;1.50;0.47;;;8.30;99.90;;;;;;4991558;27;4215861;-91
2020/12/19 06:41:48;;;;;;;1.50;0.70;;;8.60;99.90;;;;;;5118157;28;20298;-91
2020/12/19 06:44:21;;;;;;;1.30;0.30;;;8.70;99.90;;;;;;5125582;28;20262;-91
2020/12/19 06:56:05;;;;;;;3.63;0.90;;;8.90;99.90;;;;;;5121323;28;20561;-90
2020/12/19 07:22:25;;;;;;;1.73;0.70;;;9.10;99.90;;;;;;5123979;28;20208;-90
2020/12/19 07:27:44;;;;;;;3.87;0.93;;;9.20;99.90;;;;;;5107824;28;20210;-92
2020/12/19 07:30:15;;;;;;;2.80;0.90;;;9.20;99.90;;;;;;5106479;28;20276;-94
2020/12/19 07:45:50;;;;;;;1.13;0.60;;;9.20;99.90;;;;;;5105560;28;20210;-93
2020/12/19 07:48:33;;;;;;;2.37;0.67;;;9.20;99.90;;;;;;5117361;28;20217;-95
2020/12/19 07:51:10;;;;;;;3.67;1.00;;;9.20;99.90;;;;;;5108368;28;20279;-96
2020/12/19 07:53:45;;;;;;;2.20;1.13;;;9.20;99.90;;;;;;5113268;28;20205;-95
2020/12/19 08:02:08;;;;;;;3.37;0.90;;;9.00;99.90;;;;;;5110644;28;20297;-95
2020/12/19 08:04:39;;;;;;;5.87;1.20;;;8.90;99.90;;;;;;5110467;28;20194;-95
2020/12/19 08:07:26;;;;;;;2.97;0.90;;;8.90;99.90;;;;;;5109960;28;20191;-96
2020/12/19 08:10:05;;;;;;;2.30;0.97;;;8.90;99.90;;;;;;5093014;28;20220;-94
2020/12/19 08:33:04;;;;;;;7.60;2.10;;;8.80;99.90;;;;;;5110071;28;20201;-93
2020/12/19 08:35:48;;;;;;;11.90;2.27;;;8.80;99.90;;;;;;5110929;28;20214;-94
2020/12/19 09:05:35;;;;;;;5.57;1.33;;;8.50;99.90;;;;;;5109532;28;20217;-96
2020/12/19 09:08:06;;;;;;;4.77;0.67;;;8.50;99.90;;;;;;5093311;28;20225;-95
2020/12/19 09:10:46;;;;;;;3.20;0.60;;;8.50;99.90;;;;;;5095245;28;20198;-95
2020/12/19 09:13:22;;;;;;;1.80;0.33;;;8.50;99.90;;;;;;5093947;28;20221;-96
2020/12/19 10:06:25;;;;;;;4.13;0.80;;;8.10;99.90;;;;;;5099960;28;20223;-96
2020/12/19 10:09:13;;;;;;;7.87;1.27;;;8.10;99.90;;;;;;5101630;28;20179;-95
2020/12/19 10:24:10;;;;;;;9.27;0.90;;;8.10;99.90;;;;;;5113420;28;20224;-95
2020/12/19 11:38:51;;;;;;;7.80;1.53;;;7.50;99.90;;;;;;5110536;28;20223;-96
2020/12/19 15:07:41;;;;;;;13.73;1.73;;;7.20;99.90;;;;;;5708918;22;20780;-96
2020/12/19 15:33:04;;;;;;;6.67;1.83;;;7.10;99.90;;;;;;5072697;28;20201;-96
2020/12/19 15:54:27;;;;;;;13.40;2.00;;;7.00;99.90;;;;;;5066453;28;20185;-92
2020/12/19 16:06:01;;;;;;;10.27;1.83;;;7.00;99.90;;;;;;5066579;28;20208;-92
2020/12/19 16:17:50;;;;;;;13.47;2.07;;;7.00;99.90;;;;;;4720140;28;10001316;-90
2020/12/19 17:22:19;;;;;;;15.23;2.10;;;7.30;99.90;;;;;;5054088;28;20204;-92
2020/12/19 17:44:32;;;;;;;17.77;3.27;;;7.70;99.90;;;;;;5009126;28;20288;-92
2020/12/19 17:47:36;;;;;;;19.20;2.90;;;7.70;99.90;;;;;;5010950;28;20264;-94
2020/12/19 17:56:21;;;;;;;9.77;2.57;;;7.80;99.90;;;;;;4990587;28;20206;-92
2020/12/19 18:02:15;;;;;;;8.00;1.80;;;7.90;99.90;;;;;;5067434;28;20205;-92
2020/12/19 18:28:25;;;;;;;7.93;1.77;;;8.20;99.90;;;;;;5068642;28;20212;-90
2020/12/19 18:55:26;;;;;;;13.87;2.00;;;8.20;99.90;;;;;;5066672;28;20295;-90
2020/12/19 18:57:56;;;;;;;9.27;1.90;;;8.20;99.90;;;;;;5064262;28;20229;-91
2020/12/19 19:00:27;;;;;;;12.17;2.60;;;8.10;99.90;;;;;;5065274;28;20198;-90
2020/12/19 19:03:06;;;;;;;11.07;2.47;;;8.10;99.90;;;;;;5046966;28;20201;-90
2020/12/19 19:05:52;;;;;;;7.83;2.40;;;8.10;99.90;;;;;;5062105;28;20260;-90
2020/12/19 19:08:22;;;;;;;6.73;1.83;;;8.10;99.90;;;;;;5061983;28;20203;-88
2020/12/19 19:10:53;;;;;;;7.67;2.20;;;8.10;99.90;;;;;;5064462;28;20203;-90
2020/12/19 19:13:24;;;;;;;8.20;2.57;;;8.10;99.90;;;;;;5058273;28;20202;-89
2020/12/19 19:16:02;;;;;;;6.87;1.70;;;8.10;99.90;;;;;;5066994;28;20707;-89
2020/12/19 19:18:35;;;;;;;9.77;1.97;;;8.10;99.90;;;;;;5063683;28;20541;-88
2020/12/19 19:21:06;;;;;;;11.53;2.03;;;8.10;99.90;;;;;;5069734;28;20241;-91
2020/12/19 19:23:37;;;;;;;10.93;1.97;;;8.10;99.90;;;;;;5062966;28;20210;-90
2020/12/19 19:26:10;;;;;;;9.70;2.07;;;8.00;99.90;;;;;;5060038;28;20193;-91
2020/12/19 19:28:45;;;;;;;10.90;2.40;;;8.00;99.90;;;;;;5061727;28;20651;-88
2020/12/19 19:31:15;;;;;;;5.07;1.70;;;8.10;99.90;;;;;;5068940;28;20215;-90
2020/12/19 19:33:48;;;;;;;10.27;1.93;;;8.10;99.90;;;;;;5061750;28;20190;-92
2020/12/19 19:36:18;;;;;;;9.03;2.00;;;8.10;99.90;;;;;;5082404;28;20213;-96
2020/12/19 19:42:19;;;;;;;9.03;1.97;;;8.20;99.90;;;;;;5066727;28;20226;-96
2020/12/19 19:45:01;;;;;;;10.37;2.37;;;8.20;99.90;;;;;;5067406;28;20200;-91
2020/12/19 19:47:33;;;;;;;9.50;1.80;;;8.20;99.90;;;;;;5068360;28;20219;-92
2020/12/19 19:50:08;;;;;;;9.73;2.03;;;8.20;99.90;;;;;;5067843;28;20209;-92
2020/12/19 19:55:23;;;;;;;10.00;2.20;;;8.20;99.90;;;;;;5067870;28;20274;-90
2020/12/19 19:57:56;;;;;;;7.93;1.73;;;8.20;99.90;;;;;;5069112;28;20231;-90
2020/12/19 20:03:18;;;;;;;10.53;2.03;;;8.20;99.90;;;;;;5072678;28;20204;-91
2020/12/19 20:05:52;;;;;;;14.43;2.30;;;8.20;99.90;;;;;;5069926;28;20232;-91
2020/12/19 20:08:24;;;;;;;11.40;2.40;;;8.20;99.90;;;;;;5069814;28;20219;-91
2020/12/19 20:10:56;;;;;;;9.30;1.80;;;8.20;99.90;;;;;;5069245;28;20203;-91
2020/12/19 20:13:30;;;;;;;11.80;1.80;;;8.10;99.90;;;;;;5070422;28;20208;-93
2020/12/19 20:16:04;;;;;;;7.57;1.93;;;8.10;99.90;;;;;;5069500;28;20273;-91
2020/12/19 20:18:35;;;;;;;12.10;2.13;;;7.90;99.90;;;;;;5069939;28;20230;-92
2020/12/19 20:21:15;;;;;;;10.70;1.80;;;7.80;99.90;;;;;;5069649;28;20210;-92
2020/12/19 20:23:46;;;;;;;8.43;2.17;;;7.70;99.90;;;;;;5066878;28;20197;-92
2020/12/19 20:26:19;;;;;;;10.53;2.37;;;7.60;99.90;;;;;;5051171;28;20201;-91
2020/12/19 20:28:54;;;;;;;11.37;2.93;;;7.60;99.90;;;;;;5022927;28;20201;-91
2020/12/19 20:31:27;;;;;;;11.27;2.30;;;7.50;99.90;;;;;;5057558;28;20200;-92
2020/12/19 20:34:11;;;;;;;9.27;2.10;;;7.50;99.90;;;;;;5075653;28;20190;-92
2020/12/19 20:36:56;;;;;;;9.37;2.80;;;7.50;99.90;;;;;;5063109;28;20215;-90
2020/12/19 20:39:27;;;;;;;16.83;3.07;;;7.50;99.90;;;;;;5058534;28;20225;-91
2020/12/19 20:42:03;;;;;;;13.03;2.80;;;7.50;99.90;;;;;;5076732;28;20243;-90
2020/12/19 20:44:34;;;;;;;11.87;3.13;;;7.40;99.90;;;;;;5075511;28;20211;-91
2020/12/19 20:47:05;;;;;;;15.73;2.50;;;7.40;99.90;;;;;;5075208;28;20204;-91
2020/12/19 20:49:38;;;;;;;11.10;2.90;;;7.40;99.90;;;;;;5073545;28;20212;-91
2020/12/19 20:52:13;;;;;;;13.57;2.73;;;7.40;99.90;;;;;;5072712;28;20258;-92
2020/12/19 20:54:45;;;;;;;10.77;2.47;;;7.40;99.90;;;;;;5073557;28;20211;-92
2020/12/19 20:57:17;;;;;;;14.93;2.63;;;7.40;99.90;;;;;;5073977;28;20212;-91
2020/12/19 20:59:48;;;;;;;9.67;2.60;;;7.40;99.90;;;;;;5074045;28;20196;-92
2020/12/19 21:02:19;;;;;;;11.23;3.13;;;7.40;99.90;;;;;;5074104;28;20206;-92
2020/12/19 21:04:51;;;;;;;8.40;2.43;;;7.30;99.90;;;;;;5074122;28;20208;-91
2020/12/19 21:10:10;;;;;;;10.53;2.67;;;7.40;99.90;;;;;;5068559;28;20207;-92
2020/12/19 21:12:41;;;;;;;7.77;2.43;;;7.40;99.90;;;;;;5088332;28;20207;-91
2020/12/19 21:15:12;;;;;;;8.33;2.57;;;7.30;99.90;;;;;;5089692;28;20647;-92
2020/12/19 21:17:44;;;;;;;11.60;2.63;;;7.40;99.90;;;;;;5077247;28;20226;-90
2020/12/19 21:20:15;;;;;;;9.90;2.40;;;7.40;99.90;;;;;;5068546;28;20218;-91
2020/12/19 21:22:51;;;;;;;12.50;2.40;;;7.50;99.90;;;;;;5066374;28;20242;-91
2020/12/19 21:25:26;;;;;;;9.07;2.17;;;7.40;99.90;;;;;;5066466;28;20214;-91
2020/12/19 21:27:57;;;;;;;8.97;2.73;;;7.30;99.90;;;;;;5066448;28;20252;-91
2020/12/19 21:30:30;;;;;;;11.43;2.13;;;7.30;99.90;;;;;;5066317;28;20542;-91
2020/12/19 21:33:02;;;;;;;9.27;2.07;;;7.30;99.90;;;;;;5066123;28;20243;-90
2020/12/19 21:35:33;;;;;;;8.00;1.70;;;7.30;99.90;;;;;;5066273;28;20205;-91
2020/12/19 21:38:05;;;;;;;8.27;2.07;;;7.40;99.90;;;;;;5066760;28;20232;-91
2020/12/19 21:40:37;;;;;;;9.30;2.03;;;7.30;99.90;;;;;;5065770;28;20258;-91
2020/12/19 21:43:09;;;;;;;8.03;1.83;;;7.30;99.90;;;;;;5066057;28;20262;-90
2020/12/19 21:45:50;;;;;;;8.03;1.77;;;7.20;99.90;;;;;;5066603;28;20202;-91
2020/12/19 21:48:21;;;;;;;4.53;1.50;;;7.30;99.90;;;;;;5066011;28;20224;-91
2020/12/19 21:50:52;;;;;;;7.73;1.63;;;7.30;99.90;;;;;;5064424;28;20229;-90
2020/12/19 21:53:28;;;;;;;12.20;2.00;;;7.30;99.90;;;;;;5065335;28;20216;-91
2020/12/19 21:55:59;;;;;;;9.17;2.03;;;7.40;99.90;;;;;;5064761;28;20257;-91
2020/12/19 21:58:33;;;;;;;5.70;1.87;;;7.40;99.90;;;;;;5084252;28;20233;-91
2020/12/19 22:01:07;;;;;;;6.77;1.73;;;7.40;99.90;;;;;;5080623;28;20219;-90
2020/12/19 22:03:38;;;;;;;8.47;2.13;;;7.40;99.90;;;;;;5064446;28;20210;-90
2020/12/19 22:06:13;;;;;;;9.27;2.53;;;7.30;99.90;;;;;;5065248;28;20219;-91
2020/12/19 22:08:45;;;;;;;8.40;1.60;;;7.30;99.90;;;;;;5064220;28;20737;-91
2020/12/19 22:11:18;;;;;;;5.50;1.30;;;7.40;99.90;;;;;;5064451;28;20216;-91
2020/12/19 22:13:49;;;;;;;5.50;1.40;;;7.50;99.90;;;;;;5065564;28;20223;-91
2020/12/19 22:16:20;;;;;;;5.03;1.40;;;7.40;99.90;;;;;;5064457;28;20233;-91
2020/12/19 22:18:54;;;;;;;6.23;1.50;;;7.40;99.90;;;;;;5065202;28;20254;-91
2020/12/19 22:21:27;;;;;;;7.20;1.33;;;7.30;99.90;;;;;;5065561;28;20200;-91
2020/12/19 22:24:07;;;;;;;6.03;1.40;;;7.30;99.90;;;;;;5085535;28;20229;-89
2020/12/19 22:26:37;;;;;;;9.00;1.70;;;7.40;99.90;;;;;;5086394;28;20241;-91
2020/12/19 22:29:07;;;;;;;9.83;2.13;;;7.40;99.90;;;;;;5077410;28;20219;-90
2020/12/19 22:31:41;;;;;;;6.33;1.40;;;7.30;99.90;;;;;;5073460;28;20214;-90
2020/12/19 22:34:14;;;;;;;3.87;1.20;;;7.40;99.90;;;;;;5086020;28;20309;-91
2020/12/19 22:36:50;;;;;;;4.23;1.10;;;7.30;99.90;;;;;;5085474;28;20612;-91
2020/12/19 22:39:24;;;;;;;9.33;1.53;;;7.30;99.90;;;;;;5085065;28;20239;-91
2020/12/19 22:41:55;;;;;;;5.57;1.70;;;7.30;99.90;;;;;;5085405;28;20686;-91
2020/12/19 22:44:26;;;;;;;5.23;1.40;;;7.30;99.90;;;;;;5067404;28;20211;-90
2020/12/19 22:47:01;;;;;;;3.97;1.00;;;7.30;99.90;;;;;;5085246;28;20199;-92
2020/12/19 22:49:31;;;;;;;4.63;1.20;;;7.30;99.90;;;;;;5085504;28;20200;-92
2020/12/19 22:52:03;;;;;;;6.50;1.33;;;7.30;99.90;;;;;;5063884;28;20208;-90
2020/12/19 22:54:38;;;;;;;3.70;0.97;;;7.30;99.90;;;;;;5064221;28;20266;-91
2020/12/19 22:57:08;;;;;;;5.37;1.77;;;7.40;99.90;;;;;;5064025;28;20232;-92
2020/12/19 22:59:39;;;;;;;4.73;1.50;;;7.40;99.90;;;;;;5064642;28;20242;-91
2020/12/19 23:02:10;;;;;;;6.53;1.50;;;7.40;99.90;;;;;;5063840;28;20211;-91
2020/12/19 23:04:42;;;;;;;4.37;1.70;;;7.40;99.90;;;;;;5065514;28;20216;-92
2020/12/19 23:07:15;;;;;;;5.07;1.53;;;7.40;99.90;;;;;;5065020;28;20254;-91
2020/12/19 23:12:34;;;;;;;6.63;1.77;;;7.30;99.90;;;;;;5065358;28;20261;-92
2020/12/19 23:15:05;;;;;;;5.03;1.57;;;7.30;99.90;;;;;;5064021;28;20208;-92
2020/12/19 23:18:09;;;;;;;9.63;1.77;;;7.30;99.90;;;;;;5064160;28;20216;-96
2020/12/19 23:23:39;;;;;;;3.33;1.40;;;7.30;99.90;;;;;;5075472;22;20239;-92
2020/12/19 23:29:11;;;;;;;8.03;1.70;;;7.20;99.90;;;;;;5064955;28;20193;-92
2020/12/19 23:48:36;;;;;;;2.28;1.10;;;7.30;99.90;;;;;;5754803;22;10002265;-95
2020/12/19 23:51:07;;;;;;;4.87;1.50;;;7.40;99.90;;;;;;4817142;22;10001883;-95
2020/12/19 23:53:41;;;;;;;2.07;1.03;;;7.40;99.90;;;;;;5008422;28;20199;-94
2020/12/19 23:56:13;;;;;;;2.47;0.93;;;7.40;99.90;;;;;;5019668;28;20210;-93
2020/12/19 23:58:43;;;;;;;2.47;0.90;;;7.40;99.90;;;;;;5015825;28;20249;-94
